createdAt,value
2022-09-26T00:01:44.870Z,76004.41
2022-09-26T00:04:23.740Z,76000.28
2022-09-26T00:06:53.355Z,75998.22
2022-09-26T00:09:20.386Z,75987.97
2022-09-26T00:11:47.906Z,75987.97
2022-09-26T00:14:20.283Z,75990.00
2022-09-26T00:16:47.488Z,75981.78
2022-09-26T00:19:15.462Z,75979.75
2022-09-26T00:21:43.293Z,75977.69
2022-09-26T00:24:10.414Z,75975.63
2022-09-26T00:26:37.651Z,75977.69
2022-09-26T00:29:07.285Z,75975.63
2022-09-26T00:31:35.792Z,75971.50
2022-09-26T00:34:05.174Z,75961.25
2022-09-26T00:36:38.112Z,75963.28
2022-09-26T00:39:06.678Z,75963.28
2022-09-26T00:41:33.855Z,75965.34
2022-09-26T00:44:01.013Z,75959.19
2022-09-26T00:46:36.543Z,75959.19
2022-09-26T00:49:22.733Z,75955.06
2022-09-26T00:51:54.852Z,75950.97
2022-09-26T00:54:21.870Z,75955.06
2022-09-26T00:56:49.652Z,75950.97
2022-09-26T00:59:22.380Z,75955.06
2022-09-26T01:01:52.896Z,75934.53
2022-09-26T01:04:20.021Z,75934.53
2022-09-26T01:06:49.299Z,75930.41
2022-09-26T01:09:16.550Z,75926.28
2022-09-26T01:11:45.476Z,75918.06
2022-09-26T01:14:12.654Z,75905.75
2022-09-26T01:16:41.272Z,75909.84
2022-09-26T01:19:34.804Z,75911.91
2022-09-26T01:22:21.199Z,75909.84
2022-09-26T01:24:50.664Z,75916.03
2022-09-26T01:27:34.518Z,75916.03
2022-09-26T01:30:01.772Z,75909.84
2022-09-26T01:32:50.341Z,75909.84
2022-09-26T01:35:29.612Z,75901.63
2022-09-26T01:38:03.192Z,75897.53
2022-09-26T01:40:37.754Z,75897.53
2022-09-26T01:43:23.311Z,75897.53
2022-09-26T01:45:52.194Z,75897.53
2022-09-26T01:48:20.569Z,75895.47
2022-09-26T01:50:51.794Z,75895.47
2022-09-26T01:53:22.979Z,75895.47
2022-09-26T01:55:55.007Z,75893.41
2022-09-26T01:58:29.091Z,75887.25
2022-09-26T02:00:58.440Z,75885.19
2022-09-26T02:03:27.942Z,75887.25
2022-09-26T02:05:56.402Z,75889.31
2022-09-26T02:08:44.529Z,75897.53
2022-09-26T02:11:18.635Z,75889.31
2022-09-26T02:13:55.591Z,75889.31
2022-09-26T02:16:26.961Z,75893.41
2022-09-26T02:18:58.269Z,75889.31
2022-09-26T02:21:26.016Z,75889.31
2022-09-26T02:23:53.334Z,75897.53
2022-09-26T02:26:20.384Z,75895.47
2022-09-26T02:28:47.437Z,75901.63
2022-09-26T02:31:16.592Z,75897.53
2022-09-26T02:33:44.125Z,75897.53
2022-09-26T02:36:11.565Z,75889.31
2022-09-26T02:38:38.671Z,75893.41
2022-09-26T02:41:29.656Z,75893.41
2022-09-26T02:44:16.924Z,75889.31
2022-09-26T02:47:02.590Z,75889.31
2022-09-26T02:49:55.876Z,75913.97
2022-09-26T02:52:41.746Z,75916.03
2022-09-26T02:55:11.554Z,75918.06
2022-09-26T02:57:47.653Z,75922.19
2022-09-26T03:00:17.625Z,75924.25
2022-09-26T03:02:50.921Z,75922.19
2022-09-26T03:05:18.642Z,75922.19
2022-09-26T03:07:50.618Z,75913.97
2022-09-26T03:10:17.860Z,75913.97
2022-09-26T03:12:45.006Z,75918.06
2022-09-26T03:15:12.678Z,75909.84
2022-09-26T03:17:41.999Z,75922.19
2022-09-26T03:20:13.345Z,75936.56
2022-09-26T03:22:40.788Z,75940.69
2022-09-26T03:25:09.160Z,75934.53
2022-09-26T03:27:36.448Z,75930.41
2022-09-26T03:30:05.113Z,75940.69
2022-09-26T03:32:32.428Z,75936.56
2022-09-26T03:34:59.500Z,75942.75
2022-09-26T03:37:26.496Z,75932.47
2022-09-26T03:39:53.524Z,75928.34
2022-09-26T03:42:20.641Z,75922.19
2022-09-26T03:44:48.214Z,75918.06
2022-09-26T03:47:15.304Z,75903.69
2022-09-26T03:49:42.551Z,75899.56
2022-09-26T03:52:10.709Z,75905.75
2022-09-26T03:54:37.874Z,75893.41
2022-09-26T03:57:05.071Z,75899.56
2022-09-26T03:59:32.249Z,75922.19
2022-09-26T04:01:59.366Z,75924.25
2022-09-26T04:04:26.845Z,75930.41
2022-09-26T04:06:53.889Z,75930.41
2022-09-26T04:09:21.141Z,75926.28
2022-09-26T04:11:48.400Z,75934.53
2022-09-26T04:14:15.478Z,75930.41
2022-09-26T04:16:42.572Z,75934.53
2022-09-26T04:19:09.997Z,75930.41
2022-09-26T04:21:37.051Z,75936.56
2022-09-26T04:24:04.141Z,75942.75
2022-09-26T04:26:31.533Z,75944.78
2022-09-26T04:28:59.123Z,75944.78
2022-09-26T04:31:30.702Z,75950.97
2022-09-26T04:33:57.925Z,75942.75
2022-09-26T04:36:24.994Z,75938.63
2022-09-26T04:38:52.172Z,75934.53
2022-09-26T04:41:19.888Z,75930.41
2022-09-26T04:43:47.086Z,75926.28
2022-09-26T04:46:20.614Z,75932.47
2022-09-26T04:48:49.376Z,75934.53
2022-09-26T04:51:16.959Z,75934.53
2022-09-26T04:53:44.041Z,75916.03
2022-09-26T04:56:11.793Z,75905.75
2022-09-26T04:58:39.023Z,75883.13
2022-09-26T05:01:07.490Z,75876.97
2022-09-26T05:03:37.108Z,75856.41
2022-09-26T05:06:09.027Z,75852.31
2022-09-26T05:08:36.585Z,75844.09
2022-09-26T05:11:03.942Z,75835.88
2022-09-26T05:13:31.326Z,75831.75
2022-09-26T05:16:01.764Z,75833.81
2022-09-26T05:18:29.131Z,75823.53
2022-09-26T05:20:56.500Z,75815.31
2022-09-26T05:23:45.030Z,75807.09
2022-09-26T05:26:20.696Z,75780.38
2022-09-26T05:28:55.313Z,75757.78
2022-09-26T05:31:24.861Z,75741.31
2022-09-26T05:33:52.313Z,75759.81
2022-09-26T05:36:19.932Z,75761.88
2022-09-26T05:38:47.232Z,75770.09
2022-09-26T05:41:14.333Z,75778.31
2022-09-26T05:43:41.452Z,75770.09
2022-09-26T05:46:09.053Z,75786.53
2022-09-26T05:48:36.615Z,75786.53
2022-09-26T05:51:10.967Z,75774.22
2022-09-26T05:53:38.440Z,75759.81
2022-09-26T05:56:06.472Z,75747.50
2022-09-26T05:58:34.368Z,75729.00
2022-09-26T06:01:06.028Z,75708.44
2022-09-26T06:03:34.711Z,75704.34
2022-09-26T06:06:08.553Z,75700.22
2022-09-26T06:08:36.951Z,75698.16
2022-09-26T06:11:07.812Z,75679.69
2022-09-26T06:13:35.002Z,75655.00
2022-09-26T06:16:06.238Z,75613.91
2022-09-26T06:18:33.910Z,75603.63
2022-09-26T06:21:02.334Z,75611.84
2022-09-26T06:23:29.761Z,75609.81
2022-09-26T06:25:56.810Z,75618.03
2022-09-26T06:28:24.009Z,75613.91
2022-09-26T06:30:51.011Z,75611.84
2022-09-26T06:33:18.244Z,75605.69
2022-09-26T06:35:46.184Z,75589.25
2022-09-26T06:38:13.364Z,75597.47
2022-09-26T06:40:40.730Z,75578.97
2022-09-26T06:43:07.849Z,75572.81
2022-09-26T06:45:36.215Z,75568.69
2022-09-26T06:48:04.065Z,75603.63
2022-09-26T06:50:31.200Z,75622.13
2022-09-26T06:53:04.712Z,75609.81
2022-09-26T06:55:38.926Z,75601.56
2022-09-26T06:58:05.992Z,75599.53
2022-09-26T07:00:35.478Z,75597.47
2022-09-26T07:03:02.660Z,75597.47
2022-09-26T07:05:30.001Z,75589.25
2022-09-26T07:07:57.755Z,75572.81
2022-09-26T07:10:24.981Z,75531.72
2022-09-26T07:12:53.211Z,75531.72
2022-09-26T07:15:20.293Z,75523.50
2022-09-26T07:17:51.197Z,75521.44
2022-09-26T07:20:18.862Z,75502.94
2022-09-26T07:22:46.576Z,75492.66
2022-09-26T07:25:15.234Z,75511.16
2022-09-26T07:27:42.815Z,75486.50
2022-09-26T07:30:11.058Z,75502.94
2022-09-26T07:32:39.281Z,75490.59
2022-09-26T07:35:07.120Z,75482.38
2022-09-26T07:37:34.752Z,75457.72
2022-09-26T07:40:02.247Z,75453.63
2022-09-26T07:42:29.668Z,75445.41
2022-09-26T07:48:02.937Z,75322.09
2022-09-26T07:50:33.729Z,75305.66
2022-09-26T07:53:00.780Z,75320.03
2022-09-26T07:55:28.059Z,75231.69
2022-09-26T07:57:55.884Z,75244.00
2022-09-26T08:00:23.035Z,75229.63
2022-09-26T08:02:50.849Z,75161.81
2022-09-26T08:05:20.224Z,75096.06
2022-09-26T08:07:47.734Z,75030.31
2022-09-26T08:10:20.156Z,75003.59
2022-09-26T08:12:47.581Z,74976.88
2022-09-26T08:15:15.536Z,74763.22
2022-09-26T08:17:43.449Z,74650.22
2022-09-26T08:20:10.970Z,74648.16
2022-09-26T08:22:38.056Z,74602.94
2022-09-26T08:25:06.901Z,74492.00
2022-09-26T08:27:34.287Z,74541.31
2022-09-26T08:30:04.425Z,74492.00
2022-09-26T08:32:32.403Z,74303.00
2022-09-26T08:35:00.243Z,74208.50
2022-09-26T08:37:28.060Z,74274.25
2022-09-26T08:39:55.103Z,74411.88
2022-09-26T08:42:24.074Z,74376.97
2022-09-26T08:45:30.980Z,74385.19
2022-09-26T08:48:03.997Z,74344.09
2022-09-26T08:50:37.587Z,74459.16
2022-09-26T08:53:10.483Z,74471.47
2022-09-26T08:55:41.290Z,74648.16
2022-09-26T08:58:15.358Z,74582.41
2022-09-26T09:00:42.506Z,74492.00
2022-09-26T09:03:15.809Z,74383.13
2022-09-26T09:05:48.886Z,74666.66
2022-09-26T09:08:21.870Z,74744.72
2022-09-26T09:10:55.109Z,74742.66
2022-09-26T09:13:31.634Z,74720.06
2022-09-26T09:16:04.932Z,74892.66
2022-09-26T09:18:50.927Z,74923.47
2022-09-26T09:21:17.947Z,74927.56
2022-09-26T09:23:48.030Z,74902.91
2022-09-26T09:29:19.144Z,74868.00
2022-09-26T09:31:46.492Z,74857.72
2022-09-26T09:34:30.065Z,74870.03
2022-09-26T09:36:57.849Z,74904.97
2022-09-26T09:39:29.239Z,74824.84
2022-09-26T09:41:57.239Z,74529.00
2022-09-26T09:44:24.688Z,74598.84
2022-09-26T09:46:51.867Z,74728.28
2022-09-26T09:49:22.958Z,74796.09
2022-09-26T09:51:51.411Z,74713.91
2022-09-26T09:54:22.497Z,74399.56
2022-09-26T09:56:52.042Z,74208.50
2022-09-26T09:59:22.489Z,73929.16
2022-09-26T10:01:51.039Z,74011.31
2022-09-26T10:04:30.329Z,74200.28
2022-09-26T10:06:57.539Z,74401.63
2022-09-26T10:09:39.079Z,74594.75
2022-09-26T10:12:10.888Z,74742.66
2022-09-26T10:14:41.636Z,74724.16
2022-09-26T10:17:08.921Z,74549.53
2022-09-26T10:19:37.578Z,74600.91
2022-09-26T10:22:09.476Z,74644.03
2022-09-26T10:24:43.456Z,74650.22
2022-09-26T10:27:14.476Z,74504.34
2022-09-26T10:29:41.551Z,74327.66
2022-09-26T10:32:10.142Z,74175.66
2022-09-26T10:34:38.398Z,74007.22
2022-09-26T10:37:25.784Z,74118.13
2022-09-26T10:40:12.141Z,74099.63
2022-09-26T10:42:40.352Z,74360.53
2022-09-26T10:45:16.124Z,74208.50
2022-09-26T10:47:46.250Z,74233.16
2022-09-26T10:50:17.318Z,74151.00
2022-09-26T10:52:45.824Z,74319.44
2022-09-26T10:55:26.273Z,74311.22
2022-09-26T10:57:54.053Z,74249.59
2022-09-26T11:00:33.385Z,74376.97
2022-09-26T11:03:00.419Z,74364.63
2022-09-26T11:05:46.192Z,74107.84
2022-09-26T11:08:14.169Z,74196.19
2022-09-26T11:10:42.203Z,74337.94
2022-09-26T11:13:30.062Z,74537.22
2022-09-26T11:16:03.969Z,74625.56
2022-09-26T11:18:41.963Z,74648.16
2022-09-26T11:21:28.812Z,74615.28
2022-09-26T11:23:56.738Z,74644.03
2022-09-26T11:26:27.874Z,74479.69
2022-09-26T11:29:06.043Z,74237.28
2022-09-26T11:31:36.835Z,74085.25
2022-09-26T11:34:08.279Z,74171.53
2022-09-26T11:36:39.645Z,74278.34
2022-09-26T11:39:13.152Z,74342.03
2022-09-26T11:41:52.328Z,74496.13
2022-09-26T11:44:22.007Z,74533.09
2022-09-26T11:46:54.406Z,74356.44
2022-09-26T11:49:40.367Z,74274.25
2022-09-26T11:52:26.093Z,74397.50
2022-09-26T11:55:11.121Z,74516.66
2022-09-26T11:57:57.486Z,74553.66
2022-09-26T12:00:26.536Z,74483.78
2022-09-26T12:03:14.038Z,74463.25
2022-09-26T12:06:01.986Z,74432.44
2022-09-26T12:08:47.611Z,74298.91
2022-09-26T12:11:19.302Z,74224.94
2022-09-26T12:13:52.458Z,74159.22
2022-09-26T12:16:23.226Z,74183.88
2022-09-26T12:19:14.101Z,74253.72
2022-09-26T12:22:08.253Z,74253.72
2022-09-26T12:24:45.291Z,74222.91
2022-09-26T12:27:18.096Z,74118.13
2022-09-26T12:30:03.650Z,74136.63
2022-09-26T12:32:33.562Z,74290.69
2022-09-26T12:35:07.233Z,74294.78
2022-09-26T12:37:41.058Z,74249.59
2022-09-26T12:40:14.617Z,74218.78
2022-09-26T12:42:51.026Z,74229.06
2022-09-26T12:45:26.623Z,74251.66
2022-09-26T12:47:53.684Z,74282.47
2022-09-26T12:50:39.639Z,74319.44
2022-09-26T12:53:13.607Z,74321.50
2022-09-26T12:55:59.256Z,74381.06
2022-09-26T12:58:43.433Z,74418.06
2022-09-26T13:01:19.819Z,74401.63
2022-09-26T13:03:55.025Z,74331.78
2022-09-26T13:06:34.309Z,74381.06
2022-09-26T13:09:08.084Z,74405.72
2022-09-26T13:11:56.874Z,74422.16
2022-09-26T13:14:27.270Z,74352.31
2022-09-26T13:16:59.294Z,74381.06
2022-09-26T13:19:29.586Z,74471.47
2022-09-26T13:22:02.250Z,74516.66
2022-09-26T13:24:34.625Z,74598.84
2022-09-26T13:27:09.386Z,74600.91
2022-09-26T13:29:37.481Z,74627.59
2022-09-26T13:32:12.543Z,74652.25
2022-09-26T13:35:02.864Z,74672.81
2022-09-26T13:37:36.059Z,74685.13
2022-09-26T13:40:23.431Z,74693.34
2022-09-26T13:43:10.727Z,74705.69
2022-09-26T13:45:44.214Z,74726.22
2022-09-26T13:48:33.181Z,74738.56
2022-09-26T13:51:06.460Z,74734.44
2022-09-26T13:53:45.794Z,74734.44
2022-09-26T13:56:31.375Z,74742.66
2022-09-26T13:59:09.689Z,74705.69
2022-09-26T14:01:37.479Z,74664.59
2022-09-26T14:04:17.841Z,74570.09
2022-09-26T14:07:26.068Z,74510.50
2022-09-26T14:09:55.736Z,74401.63
2022-09-26T14:12:42.494Z,74397.50
2022-09-26T14:15:24.227Z,74385.19
2022-09-26T14:18:02.497Z,74333.81
2022-09-26T14:20:31.650Z,74393.41
2022-09-26T14:22:58.734Z,74360.53
2022-09-26T14:25:44.709Z,74379.03
2022-09-26T14:28:35.023Z,74422.16
2022-09-26T14:31:22.183Z,74409.84
2022-09-26T14:33:49.696Z,74399.56
2022-09-26T14:36:26.859Z,74467.34
2022-09-26T14:38:54.414Z,74607.06
2022-09-26T14:41:21.537Z,74656.38
2022-09-26T14:43:48.649Z,74699.50
2022-09-26T14:46:16.922Z,74750.88
2022-09-26T14:48:44.113Z,74767.31
2022-09-26T14:51:11.604Z,74791.97
2022-09-26T14:53:42.748Z,74810.47
2022-09-26T14:56:26.145Z,74828.94
2022-09-26T14:58:53.679Z,74828.94
2022-09-26T15:01:38.978Z,74843.34
2022-09-26T15:04:16.837Z,74857.72
2022-09-26T15:06:44.764Z,74857.72
2022-09-26T15:09:13.013Z,74857.72
2022-09-26T15:11:48.049Z,74861.81
2022-09-26T15:14:26.407Z,74865.94
2022-09-26T15:16:53.881Z,74886.47
2022-09-26T15:19:22.633Z,74882.38
2022-09-26T15:21:57.201Z,74890.59
2022-09-26T15:24:26.445Z,74900.88
2022-09-26T15:26:55.419Z,74923.47
2022-09-26T15:29:22.840Z,74944.00
2022-09-26T15:31:51.184Z,74948.13
2022-09-26T15:34:22.709Z,74941.97
2022-09-26T15:36:54.549Z,74948.13
2022-09-26T15:39:30.859Z,74944.00
2022-09-26T15:42:16.652Z,74950.19
2022-09-26T15:44:46.582Z,74939.91
2022-09-26T15:47:25.162Z,74956.34
2022-09-26T15:50:12.084Z,74976.88
2022-09-26T15:53:00.271Z,74974.84
2022-09-26T15:55:47.612Z,74989.22
2022-09-26T15:58:15.862Z,74989.22
2022-09-26T16:00:43.596Z,75015.94
2022-09-26T16:03:25.879Z,75009.75
2022-09-26T16:05:53.425Z,75013.88
2022-09-26T16:08:21.077Z,75020.03
2022-09-26T16:10:52.491Z,75030.31
2022-09-26T16:13:23.913Z,75038.53
2022-09-26T16:16:13.195Z,75038.53
2022-09-26T16:18:44.709Z,75030.31
2022-09-26T16:21:19.241Z,75038.53
2022-09-26T16:23:47.401Z,75038.53
2022-09-26T16:26:31.563Z,75042.66
2022-09-26T16:29:02.661Z,75046.75
2022-09-26T16:31:34.504Z,75046.75
2022-09-26T16:34:02.598Z,75065.25
2022-09-26T16:36:30.302Z,75063.19
2022-09-26T16:38:58.046Z,75067.28
2022-09-26T16:44:27.459Z,75067.28
2022-09-26T16:46:56.238Z,75075.53
2022-09-26T16:49:29.342Z,75087.84
2022-09-26T16:52:29.708Z,75091.97
2022-09-26T16:54:57.440Z,75104.28
2022-09-26T16:57:25.654Z,75116.63
2022-09-26T16:59:52.967Z,75122.78
2022-09-26T17:02:20.367Z,75133.06
2022-09-26T17:04:48.535Z,75124.84
2022-09-26T17:07:15.802Z,75126.88
2022-09-26T17:09:43.991Z,75128.94
2022-09-26T17:12:17.365Z,75131.00
2022-09-26T17:14:44.761Z,75131.00
2022-09-26T17:17:13.525Z,75137.16
2022-09-26T17:19:41.203Z,75131.00
2022-09-26T17:22:15.501Z,75139.22
2022-09-26T17:24:42.934Z,75141.28
2022-09-26T17:27:14.283Z,75141.28
2022-09-26T17:29:43.239Z,75137.16
2022-09-26T17:32:14.929Z,75147.44
2022-09-26T17:34:41.985Z,75149.50
2022-09-26T17:37:11.031Z,75147.44
2022-09-26T17:39:38.340Z,75147.44
2022-09-26T17:42:05.761Z,75157.72
2022-09-26T17:44:34.155Z,75153.59
2022-09-26T17:47:01.545Z,75161.81
2022-09-26T17:49:30.524Z,75161.81
2022-09-26T17:51:58.474Z,75161.81
2022-09-26T17:54:29.551Z,75161.81
2022-09-26T17:56:56.761Z,75167.97
2022-09-26T17:59:24.361Z,75174.16
2022-09-26T18:01:53.012Z,75178.25
2022-09-26T18:04:21.164Z,75174.16
2022-09-26T18:06:48.201Z,75178.25
2022-09-26T18:09:16.813Z,75178.25
2022-09-26T18:11:44.509Z,75176.19
2022-09-26T18:14:15.523Z,75178.25
2022-09-26T18:16:42.645Z,75178.25
2022-09-26T18:19:10.784Z,75182.38
2022-09-26T18:21:40.108Z,75182.38
2022-09-26T18:24:18.595Z,75178.25
2022-09-26T18:26:50.871Z,75192.63
2022-09-26T18:29:23.142Z,75192.63
2022-09-26T18:31:50.186Z,75198.81
2022-09-26T18:34:19.877Z,75194.69
2022-09-26T18:36:49.976Z,75202.91
2022-09-26T18:39:17.213Z,75190.59
2022-09-26T18:41:45.255Z,75190.59
2022-09-26T18:44:16.971Z,75196.75
2022-09-26T18:46:46.222Z,75182.38
2022-09-26T18:49:14.408Z,75184.41
2022-09-26T18:51:41.465Z,75184.41
2022-09-26T18:54:13.438Z,75174.16
2022-09-26T18:56:59.931Z,75182.38
2022-09-26T18:59:29.192Z,75186.47
2022-09-26T19:01:57.344Z,75178.25
2022-09-26T19:04:26.185Z,75178.25
2022-09-26T19:07:00.877Z,75176.19
2022-09-26T19:09:28.680Z,75174.16
2022-09-26T19:11:55.760Z,75170.03
2022-09-26T19:14:32.089Z,75174.16
2022-09-26T19:17:00.826Z,75165.94
2022-09-26T19:19:32.575Z,75165.94
2022-09-26T19:22:00.393Z,75174.16
2022-09-26T19:24:31.129Z,75170.03
2022-09-26T19:26:59.249Z,75174.16
2022-09-26T19:29:35.625Z,75178.25
2022-09-26T19:32:05.921Z,75178.25
2022-09-26T19:34:33.149Z,75182.38
2022-09-26T19:37:02.332Z,75198.81
2022-09-26T19:39:29.893Z,75194.69
2022-09-26T19:41:56.959Z,75200.88
2022-09-26T19:44:24.422Z,75211.13
2022-09-26T19:46:51.526Z,75221.41
2022-09-26T19:49:18.857Z,75223.47
2022-09-26T19:51:46.943Z,75223.47
2022-09-26T19:54:17.098Z,75215.25
2022-09-26T19:56:47.152Z,75219.34
2022-09-26T19:59:17.483Z,75211.13
2022-09-26T20:01:49.097Z,75211.13
2022-09-26T20:04:20.546Z,75227.56
2022-09-26T20:06:50.436Z,75235.78
2022-09-26T20:09:19.601Z,75235.78
2022-09-26T20:11:48.964Z,75237.84
2022-09-26T20:14:26.680Z,75231.69
2022-09-26T20:16:59.820Z,75235.78
2022-09-26T20:19:33.790Z,75235.78
2022-09-26T20:22:03.587Z,75239.91
2022-09-26T20:24:32.811Z,75244.00
2022-09-26T20:27:02.670Z,75241.97
2022-09-26T20:29:51.538Z,75239.91
2022-09-26T20:32:20.381Z,75235.78
2022-09-26T20:34:50.200Z,75231.69
2022-09-26T20:37:20.417Z,75227.56
2022-09-26T20:39:48.983Z,75223.47
2022-09-26T20:42:18.293Z,75215.25
2022-09-26T20:44:47.635Z,75215.25
2022-09-26T20:47:18.449Z,75207.03
2022-09-26T20:49:49.191Z,75215.25
2022-09-26T20:52:21.287Z,75217.31
2022-09-26T20:54:49.033Z,75204.97
2022-09-26T20:57:17.302Z,75202.91
2022-09-26T20:59:44.467Z,75207.03
2022-09-26T21:02:41.099Z,75202.91
2022-09-26T21:05:17.896Z,75215.25
2022-09-26T21:07:45.256Z,75215.25
2022-09-26T21:10:22.548Z,75207.03
2022-09-26T21:12:50.107Z,75209.09
2022-09-26T21:15:17.168Z,75215.25
2022-09-26T21:17:45.364Z,75211.13
2022-09-26T21:20:21.780Z,75215.25
2022-09-26T21:22:48.851Z,75215.25
2022-09-26T21:25:16.670Z,75202.91
2022-09-26T21:27:44.764Z,75211.13
2022-09-26T21:30:15.565Z,75207.03
2022-09-26T21:32:43.529Z,75192.63
2022-09-26T21:35:11.003Z,75188.53
2022-09-26T21:37:39.635Z,75186.47
2022-09-26T21:40:07.197Z,75188.53
2022-09-26T21:42:34.571Z,75190.59
2022-09-26T21:45:02.277Z,75194.69
2022-09-26T21:47:29.625Z,75188.53
2022-09-26T21:49:57.407Z,75186.47
2022-09-26T21:52:54.401Z,75180.31
2022-09-26T21:55:22.597Z,75176.19
2022-09-26T21:57:49.679Z,75174.16
2022-09-26T22:00:16.829Z,75165.94
2022-09-26T22:02:44.199Z,75161.81
2022-09-26T22:05:11.866Z,75159.75
2022-09-26T22:07:39.320Z,75161.81
2022-09-26T22:10:06.787Z,75157.72
2022-09-26T22:12:33.968Z,75165.94
2022-09-26T22:15:01.433Z,75174.16
2022-09-26T22:17:28.709Z,75167.97
2022-09-26T22:19:56.468Z,75174.16
2022-09-26T22:22:24.638Z,75161.81
2022-09-26T22:24:51.834Z,75165.94
2022-09-26T22:27:18.901Z,75165.94
2022-09-26T22:29:45.962Z,75174.16
2022-09-26T22:32:13.356Z,75161.81
2022-09-26T22:34:40.868Z,75161.81
2022-09-26T22:37:08.534Z,75157.72
2022-09-26T22:39:35.732Z,75141.28
2022-09-26T22:42:02.865Z,75137.16
2022-09-26T22:44:30.183Z,75133.06
2022-09-26T22:46:57.225Z,75137.16
2022-09-26T22:49:24.307Z,75141.28
2022-09-26T22:51:51.392Z,75145.38
2022-09-26T22:54:18.548Z,75143.31
2022-09-26T22:56:45.610Z,75149.50
2022-09-26T22:59:12.777Z,75147.44
2022-09-26T23:01:40.036Z,75145.38
2022-09-26T23:04:07.152Z,75141.28
2022-09-26T23:06:34.253Z,75137.16
2022-09-26T23:09:01.858Z,75135.09
2022-09-26T23:11:29.189Z,75133.06
2022-09-26T23:13:56.308Z,75131.00
2022-09-26T23:16:23.982Z,75128.94
2022-09-26T23:18:51.117Z,75124.84
2022-09-26T23:21:22.016Z,75120.72
2022-09-26T23:23:49.945Z,75118.66
2022-09-26T23:26:23.438Z,75128.94
2022-09-26T23:28:51.007Z,75124.84
2022-09-26T23:31:18.150Z,75124.84
2022-09-26T23:33:45.763Z,75126.88
2022-09-26T23:36:12.905Z,75124.84
2022-09-26T23:38:39.978Z,75112.50
2022-09-26T23:41:08.900Z,75114.56
2022-09-26T23:43:36.255Z,75112.50
2022-09-26T23:46:03.512Z,75110.44
2022-09-26T23:48:30.747Z,75114.56
2022-09-26T23:50:59.418Z,75108.41
2022-09-26T23:53:26.481Z,75104.28
2022-09-26T23:55:53.958Z,75108.41
2022-09-26T23:58:21.158Z,75104.28
